Latest Weather Observations for Applethorpe

IDQ60801

Issued at 7:32 pm EST Tuesday 21 April 2015 (issued every 30 minutes, with the page automatically refreshed every 10 minutes)

About weather observations | Map of weather stations | Latest weather observations for QLD | Other Formats
Station Details ID: 041175 Name: APPLETHORPE Lat: -28.62 Lon: 151.95 Height: 871.6 m
Data from the previous 72 hours. | See also: Recent months at Applethorpe
Date/Time
EST
Temp
°C
App
Temp
°C
Dew
Point
Rel
Hum
%
Delta-T
°C
Wind Press
QNH
hPa
Press
MSL
hPa
Rain
since 9 am
mm
Dir
 
Spd
km/h
Gust
km/h
Spd
kts
Gust
kts
21/07:30pm 6.5 3.8 3.8 83 1.2 WSW 7 13 4 7 1017.7 1014.9 0.2
21/07:00pm 6.7 4.0 3.8 82 1.3 W 7 13 4 7 1017.7 1014.9 0.2
21/06:30pm 7.1 3.5 3.0 75 1.8 WSW 11 20 6 11 1017.5 1014.7 0.2
21/06:00pm 6.9 4.1 3.1 77 1.7 WSW 7 11 4 6 1017.4 1014.6 0.2
21/05:30pm 7.7 4.4 2.5 69 2.3 W 9 13 5 7 1016.9 1014.1 0.2
21/05:00pm 8.9 4.7 1.8 61 3.1 WSW 13 22 7 12 1016.8 1014.0 0.2
21/04:30pm 9.6 5.1 2.2 60 3.3 WSW 15 28 8 15 1016.9 1014.1 0.2
21/04:00pm 9.2 4.4 2.5 63 3.0 W 17 26 9 14 1016.9 1014.1 0.2
21/03:30pm 9.9 5.3 1.5 56 3.7 WSW 15 26 8 14 1016.9 1014.1 0.2
21/03:00pm 9.8 5.0 2.4 60 3.3 W 17 28 9 15 1016.9 1014.1 0.2
21/02:30pm 8.5 4.0 2.4 65 2.7 WSW 15 28 8 15 1017.3 1014.5 0.2
21/02:00pm 9.7 5.7 2.6 61 3.2 WSW 13 24 7 13 1017.3 1014.5 0.2
21/01:30pm 8.2 4.3 3.6 73 2.1 W 13 24 7 13 1017.3 1014.5 0.2
21/01:00pm 6.8 2.8 5.1 89 0.8 WSW 15 22 8 12 1017.7 1014.9 0.2
21/12:30pm 7.1 3.5 4.9 86 1.0 W 13 20 7 11 1018.0 1015.2 0.0
21/12:00pm 9.5 6.0 3.6 66 2.7 WNW 11 22 6 12 1018.0 1015.2 0.0
21/11:30am 10.0 6.0 2.9 61 3.2 WNW 13 20 7 11 1018.0 1015.2 0.0
21/11:00am 10.7 7.2 3.3 60 3.4 WNW 11 19 6 10 1018.2 1015.5 0.0
21/10:30am 10.2 7.5 3.7 64 3.0 W 7 15 4 8 1018.2 1015.5 0.0
21/10:00am 9.0 5.6 4.0 71 2.3 WSW 11 22 6 12 1018.7 1015.9 0.0
21/09:30am 9.8 6.1 2.4 60 3.3 W 11 19 6 10 1018.6 1015.8 0.0
21/09:00am 9.3 6.0 2.3 61 3.1 W 9 20 5 11 1018.7 1015.9 1.4
21/08:30am 8.5 5.8 3.9 73 2.1 WSW 7 13 4 7 1018.7 1015.9 1.4
21/08:00am 7.3 4.8 4.9 85 1.1 SW 7 13 4 7 1018.6 1015.8 1.4
21/07:30am 6.4 4.2 5.1 91 0.6 SW 6 9 3 5 1018.2 1015.5 1.4
21/07:00am 5.2 3.7 5.0 99 0.1 WSW 2 4 1 2 1018.3 1015.6 1.4
21/06:30am 4.9 3.0 4.7 99 0.1 WSW 4 6 2 3 1018.5 1015.7 1.4
21/06:00am 5.2 2.7 4.8 97 0.2 WSW 7 13 4 7 1018.2 1015.5 1.4
21/05:30am 4.6 2.6 4.4 99 0.1 WSW 4 7 2 4 1018.1 1015.3 1.4
21/05:00am 5.2 3.3 5.0 99 0.1 WSW 4 6 2 3 1017.9 1015.1 1.4
21/04:30am 5.7 3.4 5.0 95 0.3 WSW 6 9 3 5 1017.8 1015.0 1.4
21/04:00am 5.9 3.7 5.5 97 0.2 WSW 6 11 3 6 1017.8 1015.0 1.4
21/03:30am 6.2 3.9 5.6 96 0.3 WSW 7 17 4 9 1017.8 1015.0 1.4
21/03:00am 6.3 4.2 5.7 96 0.3 WSW 6 13 3 7 1017.8 1015.0 1.4
21/02:30am 6.6 4.4 6.0 96 0.3 WSW 7 13 4 7 1018.1 1015.3 1.4
21/02:00am 6.9 4.7 6.3 96 0.3 W 7 13 4 7 1018.5 1015.7 1.4
21/01:00am 8.4 5.7 7.4 93 0.5 WSW 11 17 6 9 1019.2 1016.5 1.4
21/12:30am 8.8 5.8 7.8 93 0.5 WSW 13 20 7 11 1019.2 1016.5 1.4
21/12:00am 8.8 6.7 8.2 96 0.3 WSW 9 17 5 9 1019.3 1016.6 1.4
 
Date/Time
EST
Temp
°C
App
Temp
°C
Dew
Point
Rel
Hum
%
Delta-T
°C
Wind Press
QNH
hPa
Press
MSL
hPa
Rain
since 9 am
mm
Dir
 
Spd
km/h
Gust
km/h
Spd
kts
Gust
kts
20/11:30pm 8.8 6.7 8.2 96 0.3 WSW 9 15 5 8 1019.4 1016.7 1.4
20/11:00pm 9.3 7.4 8.9 97 0.2 WSW 9 15 5 8 1019.9 1017.1 1.4
20/10:30pm 9.5 7.7 9.3 99 0.1 WSW 9 17 5 9 1020.1 1017.3 1.4
20/10:00pm 9.5 7.7 9.3 99 0.1 WSW 9 17 5 9 1020.1 1017.3 1.4
20/09:30pm 9.6 7.8 9.4 99 0.1 WSW 9 17 5 9 1020.3 1017.6 1.4
20/09:00pm 9.6 7.5 9.6 100 0.0 WSW 11 19 6 10 1020.5 1017.8 1.4
20/08:30pm 9.8 8.0 9.6 99 0.1 WSW 9 15 5 8 1020.3 1017.6 1.4
20/08:00pm 10.0 8.7 9.8 99 0.1 WSW 7 13 4 7 1020.3 1017.6 1.4
20/07:30pm 10.2 8.9 10.0 99 0.1 WSW 7 13 4 7 1019.9 1017.1 1.4
20/07:00pm 10.3 9.2 10.1 99 0.1 SW 6 9 3 5 1019.7 1016.9 1.4
20/06:30pm 10.5 9.3 10.3 99 0.1 WSW 7 15 4 8 1019.7 1016.9 1.4
20/06:00pm 10.5 9.3 10.3 99 0.1 SW 7 13 4 7 1019.3 1016.6 1.4
20/05:30pm 10.6 9.1 10.4 99 0.1 SW 9 19 5 10 1019.2 1016.5 1.4
20/05:00pm 10.8 9.7 10.6 99 0.1 SW 7 11 4 6 1019.4 1016.7 1.4
20/04:30pm 11.4 10.1 11.2 99 0.1 WSW 9 17 5 9 1019.4 1016.7 1.4
20/04:00pm 11.5 9.5 11.5 100 0.0 WSW 13 24 7 13 1019.0 1016.2 1.4
20/03:30pm 12.2 11.4 11.8 97 0.2 WSW 7 15 4 8 1018.8 1016.0 1.4
20/03:00pm 12.4 11.4 12.2 99 0.1 WSW 9 13 5 7 1018.8 1016.0 1.4
20/02:30pm 12.9 12.3 12.4 97 0.3 WSW 7 13 4 7 1019.2 1016.5 1.4
20/02:00pm 13.1 12.2 12.7 97 0.2 W 9 13 5 7 1019.1 1016.3 1.4
20/01:30pm 14.0 13.8 13.1 94 0.5 WSW 6 9 3 5 1019.3 1016.6 1.4
20/01:00pm 13.9 13.6 13.4 97 0.3 W 7 15 4 8 1019.4 1016.7 1.4
20/12:30pm 14.1 13.5 13.6 97 0.3 WSW 9 15 5 8 1019.5 1016.8 1.4
20/12:00pm 14.8 15.7 14.1 96 0.4 NW 2 6 1 3 1020.2 1017.5 1.4
20/11:30am 15.1 16.5 14.3 95 0.5 CALM 0 0 0 0 1020.5 1017.8 0.6
20/11:00am 15.1 16.1 14.3 95 0.5 ENE 2 4 1 2 1020.6 1017.9 0.6
20/10:30am 14.9 15.9 14.2 96 0.4 ENE 2 4 1 2 1021.2 1018.4 0.6
20/10:00am 14.8 15.5 14.5 98 0.2 NE 4 9 2 5 1021.3 1018.6 0.4
20/09:30am 14.5 15.1 14.2 98 0.2 NE 4 9 2 5 1021.7 1019.0 0.0
20/09:00am 14.4 14.9 13.9 97 0.3 E 4 9 2 5 1021.5 1018.8 29.4
20/08:30am 14.2 15.1 13.9 98 0.2 E 2 6 1 3 1021.8 1019.1 28.0
20/08:00am 14.3 15.2 14.0 98 0.2 E 2 6 1 3 1021.5 1018.8 20.6
20/07:30am 14.5 15.5 14.2 98 0.2 S 2 9 1 5 1021.4 1018.7 18.4
20/07:00am 14.6 16.0 14.3 98 0.2 CALM 0 2 0 1 1021.4 1018.7 16.8
20/06:30am 14.5 15.1 14.3 99 0.1 NNE 4 9 2 5 1020.9 1018.1 16.6
20/06:00am 14.4 15.7 14.2 99 0.1 CALM 0 0 0 0 1021.3 1018.6 16.0
20/05:30am 14.4 14.9 14.1 98 0.2 SW 4 6 2 3 1021.1 1018.3 15.8
20/05:00am 14.3 15.6 14.0 98 0.2 CALM 0 2 0 1 1020.3 1017.6 15.8
20/04:30am 14.3 15.6 14.1 99 0.1 CALM 0 0 0 0 1020.2 1017.5 15.8
20/04:00am 14.4 15.4 14.2 99 0.1 WNW 2 4 1 2 1020.5 1017.8 15.6
20/03:30am 14.5 15.5 14.2 98 0.2 SE 2 6 1 3 1020.1 1017.3 15.0
20/03:00am 14.4 15.7 14.2 99 0.1 CALM 0 0 0 0 1020.7 1018.0 14.6
20/02:30am 14.5 15.8 14.2 98 0.2 CALM 0 0 0 0 1021.0 1018.2 14.4
20/02:00am 14.5 15.5 14.3 99 0.1 WSW 2 4 1 2 1021.3 1018.6 14.0
20/01:30am 14.5 15.5 14.2 98 0.2 WSW 2 4 1 2 1021.4 1018.7 13.8
20/01:00am 14.5 15.1 14.2 98 0.2 SSW 4 6 2 3 1021.5 1018.8 13.4
20/12:30am 14.6 14.8 14.3 98 0.2 SW 6 7 3 4 1021.7 1019.0 13.4
20/12:00am 14.8 15.5 14.6 99 0.1 W 4 4 2 2 1022.2 1019.4 13.4
 
Date/Time
EST
Temp
°C
App
Temp
°C
Dew
Point
Rel
Hum
%
Delta-T
°C
Wind Press
QNH
hPa
Press
MSL
hPa
Rain
since 9 am
mm
Dir
 
Spd
km/h
Gust
km/h
Spd
kts
Gust
kts
19/11:30pm 14.9 15.7 14.7 99 0.1 SW 4 7 2 4 1022.2 1019.4 13.4
19/11:00pm 15.1 15.6 14.9 99 0.1 SW 6 11 3 6 1022.5 1019.8 13.4
19/10:30pm 15.1 15.5 14.8 98 0.2 SW 6 9 3 5 1022.4 1019.7 13.4
19/10:00pm 15.2 15.7 14.9 98 0.2 SSW 6 9 3 5 1022.6 1019.9 13.4
19/09:30pm 15.2 16.8 14.9 98 0.2 CALM 0 2 0 1 1022.6 1019.9 13.4
19/09:00pm 15.1 16.7 14.9 99 0.1 CALM 0 0 0 0 1022.6 1019.9 13.4
19/08:30pm 15.3 16.9 15.0 98 0.2 CALM 0 0 0 0 1022.5 1019.8 13.0
19/08:00pm 15.4 17.1 15.1 98 0.2 CALM 0 2 0 1 1022.6 1019.9 12.4
19/07:30pm 15.5 17.2 15.2 98 0.2 CALM 0 0 0 0 1022.4 1019.7 11.8
19/07:00pm 15.6 16.6 15.3 98 0.2 SW 4 6 2 3 1022.2 1019.4 10.6
19/06:30pm 15.9 16.3 15.4 97 0.3 WSW 7 13 4 7 1021.8 1019.1 7.8
19/06:00pm 16.1 17.1 15.4 96 0.4 WSW 4 7 2 4 1021.4 1018.7 6.2
19/05:30pm 16.3 17.5 15.8 97 0.3 SW 4 6 2 3 1021.0 1018.2 6.0
19/05:00pm 16.6 18.1 15.8 95 0.5 WSW 2 7 1 4 1020.7 1018.0 5.8
19/04:30pm 16.9 17.7 15.8 93 0.7 WSW 6 9 3 5 1020.6 1017.9 5.6
19/04:00pm 17.4 17.8 15.4 88 1.2 W 7 11 4 6 1020.4 1017.7 5.6
19/03:30pm 17.8 18.5 15.7 87 1.3 W 6 9 3 5 1020.5 1017.8 5.6
19/03:00pm 17.9 19.0 15.6 86 1.4 WNW 4 9 2 5 1020.5 1017.8 5.6
19/02:30pm 17.6 18.2 15.3 86 1.4 W 6 9 3 5 1020.7 1018.0 5.6
19/02:00pm 17.2 17.5 15.0 87 1.3 W 7 11 4 6 1020.6 1017.9 5.6
19/01:30pm 16.9 17.3 15.4 91 0.9 WNW 7 11 4 6 1021.1 1018.3 5.6
19/01:00pm 16.7 17.8 15.5 93 0.7 NNW 4 9 2 5 1021.1 1018.3 5.6
19/12:30pm 16.5 17.5 15.3 93 0.7 W 4 7 2 4 1021.5 1018.8 5.6
19/12:00pm 15.9 17.0 14.7 93 0.7 NW 2 6 1 3 1022.2 1019.4 5.6
19/11:30am 15.6 15.9 14.6 94 0.6 NNW 6 11 3 6 1022.6 1019.9 5.2
19/11:00am 16.2 15.7 15.0 93 0.7 N 11 20 6 11 1022.6 1019.9 4.6
19/10:30am 15.6 16.1 14.9 96 0.4 NNW 6 13 3 7 1023.1 1020.4 4.2
19/10:00am 16.5 17.2 15.5 94 0.6 WNW 6 11 3 6 1023.0 1020.3 0.6
19/09:30am 16.9 18.0 15.6 92 0.8 NNW 4 11 2 6 1022.8 1020.1 0.0
19/09:00am 16.5 16.5 15.2 92 0.8 N 9 15 5 8 1022.9 1020.2 0.0
19/08:30am 16.6 16.5 14.9 90 1.0 N 9 15 5 8 1022.8 1020.1 0.0
19/08:00am 16.8 17.0 14.8 88 1.2 NNW 7 15 4 8 1022.6 1019.9 0.0
19/07:30am 16.2 16.1 14.9 92 0.8 NNW 9 15 5 8 1022.3 1019.6 0.0
19/07:00am 16.1 15.2 14.8 92 0.8 N 13 24 7 13 1021.6 1018.9 0.0
19/06:30am 16.1 15.2 14.8 92 0.8 N 13 20 7 11 1021.3 1018.6 0.0
19/06:00am 16.1 15.2 14.8 92 0.8 N 13 22 7 12 1021.0 1018.2 0.0
19/05:30am 16.0 15.4 14.7 92 0.8 N 11 20 6 11 1020.9 1018.1 0.0
19/05:00am 16.0 16.2 14.7 92 0.8 N 7 13 4 7 1020.6 1017.9 0.0
19/04:30am 16.0 15.4 14.7 92 0.8 N 11 19 6 10 1020.5 1017.8 0.0
19/04:00am 16.0 15.5 14.8 93 0.7 N 11 19 6 10 1020.4 1017.7 0.0
19/03:30am 16.0 16.2 14.8 93 0.7 N 7 19 4 10 1020.6 1017.9 0.0
19/03:00am 16.0 15.4 14.7 92 0.8 NNE 11 20 6 11 1020.5 1017.8 0.0
19/02:30am 16.1 16.4 14.9 93 0.7 N 7 13 4 7 1021.2 1018.4 0.0
19/02:00am 16.0 16.3 15.0 94 0.6 NNE 7 15 4 8 1021.4 1018.7 0.0
19/01:30am 15.8 16.3 15.1 96 0.4 NNE 6 13 3 7 1021.8 1019.1 0.0
19/01:00am 14.4 15.3 14.1 98 0.2 E 2 6 1 3 1022.2 1019.4 0.0
19/12:30am 13.7 14.3 13.2 97 0.3 ENE 2 4 1 2 1022.2 1019.4 0.0
19/12:00am 14.2 15.0 13.7 97 0.3 E 2 4 1 2 1022.7 1020.0 0.0
 
Date/Time
EST
Temp
°C
App
Temp
°C
Dew
Point
Rel
Hum
%
Delta-T
°C
Wind Press
QNH
hPa
Press
MSL
hPa
Rain
since 9 am
mm
Dir
 
Spd
km/h
Gust
km/h
Spd
kts
Gust
kts
18/11:30pm 14.4 15.6 13.9 97 0.3 CALM 0 0 0 0 1022.7 1020.0 0.0
18/11:00pm 14.8 15.7 14.1 96 0.4 ENE 2 4 1 2 1022.8 1020.1 0.0
18/10:30pm 15.1 16.0 14.1 94 0.6 NE 2 6 1 3 1023.1 1020.4 0.0
18/10:00pm 15.9 16.3 14.7 93 0.7 NE 6 9 3 5 1023.0 1020.3 0.0
18/09:30pm 16.8 16.7 15.0 89 1.1 NNE 9 15 5 8 1023.2 1020.6 0.0
18/09:00pm 16.8 17.1 15.0 89 1.1 NNE 7 11 4 6 1023.2 1020.6 0.0
18/08:30pm 16.7 16.9 14.7 88 1.2 NNE 7 11 4 6 1023.1 1020.4 0.0
18/08:00pm 16.4 17.0 14.2 87 1.3 NNE 4 7 2 4 1023.0 1020.3 0.0

Other Formats:

Comma delimited format used in spreadsheet applications
http://www.bom.gov.au/fwo/IDQ60801/IDQ60801.94553.axf

JavaScript Object Notation format (JSON) in row-major order
http://www.bom.gov.au/fwo/IDQ60801/IDQ60801.94553.json